Dagus Mines, PA (15831)

6:35 AM EDT on October 21, 2014 (GMT -0400)
Emerald Estates | Change Station
CLOSE
Current Station
Personal Weather Station
Location: Saint Marys, PA
Elevation: 1870 ft
Nearby Weather Stations

Elev 1870 ft 41.43 °N, 78.60 °W | Updated 5 seconds ago

Rain
Rain
46.4 °F
Feels Like 46 °F
N
0.0
Wind Variable Wind from North
Gusts 1.0 mph

Today
High -- | Low -- °F
--% Chance of Precip.
Yesterday
High -- | Low -- °F
Precip. -- in
7:32 AM 6:24 PM
Waning Crescent, 6% visible
Pressure 29.82 in
Visibility 6.0 miles
Clouds Overcast 300 ft
Windchill 46 °F
Dew Point 46 °F
Humidity 98%
Rainfall 0.14 in
Snow Depth Not available.
UV 0 out of 12
Pollen .30 out of 12
Air Quality Not available.
Flu Activity Sporadic
METAR KDUJ 210953Z AUTO 24007KT 6SM BR OVC003 09/08 A2981 RMK AO2 RAE12 SLP096 P0001 T00890083

More Conditions Fewer Conditions

Pressure 29.82 in
Visibility 6.0 miles
Clouds Overcast 300 ft
Windchill 46 °F
Dew Point 46 °F
Humidity 98%
Rainfall 0.14 in
Snow Depth Not available.
UV 0 out of 12
Pollen .30 out of 12
Air Quality Not available.
Flu Activity Sporadic
METAR KDUJ 210953Z AUTO 24007KT 6SM BR OVC003 09/08 A2981 RMK AO2 RAE12 SLP096 P0001 T00890083

More Conditions Fewer Conditions

Nowcast | as of 4:32 am EDT on October 21, 2014

Scattered showers...some on the heavy side...will be across north central Pennsylvania through 10 am. Most of the showers will be north of Interstate 80. The showers are moving east at 25 mph.

×

10-Day Weather Forecast

Almanac

Astronomy

Oct. 21, 2014 Rise Set
Actual Time 7:32 AM EDT 6:24 PM EDT
Civil Twilight 7:04 AM EDT 6:52 PM EDT
Nautical Twilight 6:32 AM EDT 7:24 PM EDT
Astronomical Twilight 6:00 AM EDT 7:56 PM EDT
Moon 5:14 AM EDT 5:18 PM EDT
Length of Visible Light 11h 47m
Length of Day
10h 51m
Tomorrow will be 2m 36s shorter.
Waning Crescent, 6% of the Moon is Illuminated
Today
Waning Crescent
Oct 23
New
Oct 30
First Quarter
Nov 6
Full
Nov 14
Last Quarter

Today's Extremes

State Highs State Lows

Community

WunderPhotos

Upload Photos

1,763,625 photos uploaded!

Nearby

Snow Depth

Station Depth Elevation
No new snow has been reported.

Earthquake Activity

City Distance Mag. Time & Date
No recent earthquake activity has been reported nearby.
Minimum magnitude displayed is 2.5.

Coastal Water Temperatures

Place Temperature
No Stations Reporting

Nearby Weather Stations